sensor_id;sensor_type;location;lat;lon;timestamp;P1;durP1;ratioP1;P2;durP2;ratioP2
20336;SDS011;10326;53.660;10.200;2023-03-11T00:01:42;9.50;;;8.70;;
20336;SDS011;10326;53.660;10.200;2023-03-11T00:04:09;9.37;;;8.57;;
20336;SDS011;10326;53.660;10.200;2023-03-11T00:06:37;9.93;;;9.03;;
20336;SDS011;10326;53.660;10.200;2023-03-11T00:09:05;9.63;;;8.73;;
20336;SDS011;10326;53.660;10.200;2023-03-11T00:11:32;10.37;;;9.47;;
20336;SDS011;10326;53.660;10.200;2023-03-11T00:14:00;10.00;;;9.10;;
20336;SDS011;10326;53.660;10.200;2023-03-11T00:16:27;10.50;;;9.53;;
20336;SDS011;10326;53.660;10.200;2023-03-11T00:18:54;9.67;;;8.77;;
20336;SDS011;10326;53.660;10.200;2023-03-11T00:21:22;9.77;;;8.97;;
20336;SDS011;10326;53.660;10.200;2023-03-11T00:23:49;10.20;;;9.20;;
20336;SDS011;10326;53.660;10.200;2023-03-11T00:26:17;10.93;;;9.87;;
20336;SDS011;10326;53.660;10.200;2023-03-11T00:28:45;11.10;;;10.10;;
20336;SDS011;10326;53.660;10.200;2023-03-11T00:31:13;11.33;;;10.13;;
20336;SDS011;10326;53.660;10.200;2023-03-11T00:33:41;11.37;;;10.37;;
20336;SDS011;10326;53.660;10.200;2023-03-11T00:36:12;10.57;;;9.67;;
20336;SDS011;10326;53.660;10.200;2023-03-11T00:38:48;11.50;;;10.50;;
20336;SDS011;10326;53.660;10.200;2023-03-11T00:41:16;12.10;;;11.00;;
20336;SDS011;10326;53.660;10.200;2023-03-11T00:43:44;12.23;;;11.03;;
20336;SDS011;10326;53.660;10.200;2023-03-11T00:46:11;12.67;;;11.47;;
20336;SDS011;10326;53.660;10.200;2023-03-11T00:48:38;12.60;;;11.40;;
20336;SDS011;10326;53.660;10.200;2023-03-11T00:51:05;13.07;;;11.77;;
20336;SDS011;10326;53.660;10.200;2023-03-11T00:53:33;13.80;;;12.37;;
20336;SDS011;10326;53.660;10.200;2023-03-11T00:56:05;13.43;;;12.13;;
20336;SDS011;10326;53.660;10.200;2023-03-11T00:58:35;13.80;;;12.50;;
20336;SDS011;10326;53.660;10.200;2023-03-11T01:01:05;15.13;;;13.73;;
20336;SDS011;10326;53.660;10.200;2023-03-11T01:03:33;13.77;;;12.53;;
20336;SDS011;10326;53.660;10.200;2023-03-11T01:06:01;15.10;;;13.70;;
20336;SDS011;10326;53.660;10.200;2023-03-11T01:08:28;14.67;;;13.17;;
20336;SDS011;10326;53.660;10.200;2023-03-11T01:10:55;14.67;;;13.27;;
20336;SDS011;10326;53.660;10.200;2023-03-11T01:13:23;15.57;;;14.10;;
20336;SDS011;10326;53.660;10.200;2023-03-11T01:15:55;15.23;;;13.83;;
20336;SDS011;10326;53.660;10.200;2023-03-11T01:18:22;14.97;;;13.57;;
20336;SDS011;10326;53.660;10.200;2023-03-11T01:20:51;16.33;;;14.63;;
20336;SDS011;10326;53.660;10.200;2023-03-11T01:23:19;15.03;;;13.60;;
20336;SDS011;10326;53.660;10.200;2023-03-11T01:25:47;16.03;;;14.43;;
20336;SDS011;10326;53.660;10.200;2023-03-11T01:28:14;14.73;;;13.33;;
20336;SDS011;10326;53.660;10.200;2023-03-11T01:30:41;14.93;;;13.43;;
20336;SDS011;10326;53.660;10.200;2023-03-11T01:33:12;15.60;;;14.00;;
20336;SDS011;10326;53.660;10.200;2023-03-11T01:35:43;15.17;;;13.67;;
20336;SDS011;10326;53.660;10.200;2023-03-11T01:38:11;16.63;;;15.03;;
20336;SDS011;10326;53.660;10.200;2023-03-11T01:40:39;16.47;;;14.17;;
20336;SDS011;10326;53.660;10.200;2023-03-11T01:46:19;15.13;;;13.63;;
20336;SDS011;10326;53.660;10.200;2023-03-11T01:48:50;14.33;;;12.93;;
20336;SDS011;10326;53.660;10.200;2023-03-11T01:51:20;15.17;;;13.67;;
20336;SDS011;10326;53.660;10.200;2023-03-11T01:53:53;14.87;;;13.43;;
20336;SDS011;10326;53.660;10.200;2023-03-11T01:56:23;14.13;;;12.63;;
20336;SDS011;10326;53.660;10.200;2023-03-11T01:58:50;14.63;;;13.23;;
20336;SDS011;10326;53.660;10.200;2023-03-11T02:01:19;14.23;;;12.77;;
20336;SDS011;10326;53.660;10.200;2023-03-11T02:03:49;14.40;;;12.87;;
20336;SDS011;10326;53.660;10.200;2023-03-11T02:06:17;13.77;;;12.50;;
20336;SDS011;10326;53.660;10.200;2023-03-11T02:08:48;13.70;;;12.40;;
20336;SDS011;10326;53.660;10.200;2023-03-11T02:11:17;14.07;;;12.70;;
20336;SDS011;10326;53.660;10.200;2023-03-11T02:13:49;13.60;;;12.23;;
20336;SDS011;10326;53.660;10.200;2023-03-11T02:16:17;13.80;;;12.40;;
20336;SDS011;10326;53.660;10.200;2023-03-11T02:18:45;14.23;;;12.93;;
20336;SDS011;10326;53.660;10.200;2023-03-11T02:21:16;14.17;;;12.80;;
20336;SDS011;10326;53.660;10.200;2023-03-11T02:23:52;12.67;;;11.57;;
20336;SDS011;10326;53.660;10.200;2023-03-11T02:26:24;14.13;;;12.73;;
20336;SDS011;10326;53.660;10.200;2023-03-11T02:28:57;15.40;;;14.00;;
20336;SDS011;10326;53.660;10.200;2023-03-11T02:31:26;13.57;;;12.27;;
20336;SDS011;10326;53.660;10.200;2023-03-11T02:33:54;14.50;;;13.10;;
20336;SDS011;10326;53.660;10.200;2023-03-11T02:36:29;13.70;;;12.40;;
20336;SDS011;10326;53.660;10.200;2023-03-11T02:39:00;13.73;;;12.40;;
20336;SDS011;10326;53.660;10.200;2023-03-11T02:41:27;14.00;;;12.67;;
20336;SDS011;10326;53.660;10.200;2023-03-11T02:43:58;15.20;;;13.70;;
20336;SDS011;10326;53.660;10.200;2023-03-11T02:46:28;14.70;;;13.30;;
20336;SDS011;10326;53.660;10.200;2023-03-11T02:48:56;14.97;;;13.47;;
20336;SDS011;10326;53.660;10.200;2023-03-11T02:51:25;16.87;;;15.17;;
20336;SDS011;10326;53.660;10.200;2023-03-11T02:53:54;16.93;;;14.67;;
20336;SDS011;10326;53.660;10.200;2023-03-11T02:56:28;14.40;;;13.00;;
20336;SDS011;10326;53.660;10.200;2023-03-11T02:58:55;14.43;;;13.13;;
20336;SDS011;10326;53.660;10.200;2023-03-11T03:01:23;15.37;;;13.87;;
20336;SDS011;10326;53.660;10.200;2023-03-11T03:03:51;13.53;;;12.23;;
20336;SDS011;10326;53.660;10.200;2023-03-11T03:06:18;15.03;;;13.63;;
20336;SDS011;10326;53.660;10.200;2023-03-11T03:08:47;14.13;;;12.83;;
20336;SDS011;10326;53.660;10.200;2023-03-11T03:11:14;14.27;;;12.87;;
20336;SDS011;10326;53.660;10.200;2023-03-11T03:13:41;13.70;;;12.33;;
20336;SDS011;10326;53.660;10.200;2023-03-11T03:16:08;15.77;;;14.17;;
20336;SDS011;10326;53.660;10.200;2023-03-11T03:18:37;14.57;;;13.17;;
20336;SDS011;10326;53.660;10.200;2023-03-11T03:21:04;14.60;;;13.20;;
20336;SDS011;10326;53.660;10.200;2023-03-11T03:23:32;13.00;;;11.80;;
20336;SDS011;10326;53.660;10.200;2023-03-11T03:26:02;12.57;;;11.27;;
20336;SDS011;10326;53.660;10.200;2023-03-11T03:28:31;13.20;;;11.90;;
20336;SDS011;10326;53.660;10.200;2023-03-11T03:31:02;12.57;;;11.27;;
20336;SDS011;10326;53.660;10.200;2023-03-11T03:33:30;12.10;;;11.00;;
20336;SDS011;10326;53.660;10.200;2023-03-11T03:35:59;11.60;;;10.50;;
20336;SDS011;10326;53.660;10.200;2023-03-11T03:38:34;12.40;;;11.20;;
20336;SDS011;10326;53.660;10.200;2023-03-11T03:41:02;12.37;;;11.13;;
20336;SDS011;10326;53.660;10.200;2023-03-11T03:43:30;11.37;;;10.27;;
20336;SDS011;10326;53.660;10.200;2023-03-11T03:45:58;11.63;;;10.43;;
20336;SDS011;10326;53.660;10.200;2023-03-11T03:48:30;11.57;;;10.30;;
20336;SDS011;10326;53.660;10.200;2023-03-11T03:51:05;11.07;;;9.93;;
20336;SDS011;10326;53.660;10.200;2023-03-11T03:53:39;11.97;;;10.77;;
20336;SDS011;10326;53.660;10.200;2023-03-11T03:56:08;11.10;;;10.00;;
20336;SDS011;10326;53.660;10.200;2023-03-11T03:58:38;10.93;;;9.93;;
20336;SDS011;10326;53.660;10.200;2023-03-11T04:01:06;11.67;;;10.57;;
20336;SDS011;10326;53.660;10.200;2023-03-11T04:03:33;11.50;;;10.30;;
20336;SDS011;10326;53.660;10.200;2023-03-11T04:06:09;11.97;;;10.80;;
20336;SDS011;10326;53.660;10.200;2023-03-11T04:08:41;11.70;;;10.60;;
20336;SDS011;10326;53.660;10.200;2023-03-11T04:11:10;11.50;;;10.30;;
20336;SDS011;10326;53.660;10.200;2023-03-11T04:13:37;11.27;;;10.17;;
20336;SDS011;10326;53.660;10.200;2023-03-11T04:16:06;11.23;;;10.17;;
20336;SDS011;10326;53.660;10.200;2023-03-11T04:18:33;11.33;;;10.07;;
20336;SDS011;10326;53.660;10.200;2023-03-11T04:21:03;10.83;;;9.83;;
20336;SDS011;10326;53.660;10.200;2023-03-11T04:23:32;11.10;;;10.07;;
20336;SDS011;10326;53.660;10.200;2023-03-11T04:25:59;11.60;;;10.50;;
20336;SDS011;10326;53.660;10.200;2023-03-11T04:28:26;11.77;;;10.57;;
20336;SDS011;10326;53.660;10.200;2023-03-11T04:30:53;11.83;;;10.70;;
20336;SDS011;10326;53.660;10.200;2023-03-11T04:33:21;11.37;;;10.17;;
20336;SDS011;10326;53.660;10.200;2023-03-11T04:35:48;11.33;;;10.13;;
20336;SDS011;10326;53.660;10.200;2023-03-11T04:38:17;11.77;;;10.63;;
20336;SDS011;10326;53.660;10.200;2023-03-11T04:40:45;11.57;;;10.47;;
20336;SDS011;10326;53.660;10.200;2023-03-11T04:43:12;11.10;;;10.10;;
20336;SDS011;10326;53.660;10.200;2023-03-11T04:45:39;11.17;;;10.07;;
20336;SDS011;10326;53.660;10.200;2023-03-11T04:48:08;11.23;;;10.23;;
20336;SDS011;10326;53.660;10.200;2023-03-11T04:50:38;11.67;;;10.00;;
20336;SDS011;10326;53.660;10.200;2023-03-11T04:53:05;10.67;;;9.67;;
20336;SDS011;10326;53.660;10.200;2023-03-11T04:55:32;11.97;;;10.80;;
20336;SDS011;10326;53.660;10.200;2023-03-11T04:58:01;11.27;;;10.17;;
20336;SDS011;10326;53.660;10.200;2023-03-11T05:00:29;10.00;;;9.13;;
20336;SDS011;10326;53.660;10.200;2023-03-11T05:03:03;10.43;;;9.40;;
20336;SDS011;10326;53.660;10.200;2023-03-11T05:05:30;11.33;;;10.23;;
20336;SDS011;10326;53.660;10.200;2023-03-11T05:07:57;10.80;;;9.80;;
20336;SDS011;10326;53.660;10.200;2023-03-11T05:10:24;11.33;;;10.30;;
20336;SDS011;10326;53.660;10.200;2023-03-11T05:12:54;12.13;;;10.87;;
20336;SDS011;10326;53.660;10.200;2023-03-11T05:15:28;11.40;;;10.20;;
20336;SDS011;10326;53.660;10.200;2023-03-11T05:17:58;11.33;;;10.20;;
20336;SDS011;10326;53.660;10.200;2023-03-11T05:20:26;12.63;;;10.47;;
20336;SDS011;10326;53.660;10.200;2023-03-11T05:22:53;11.40;;;10.30;;
20336;SDS011;10326;53.660;10.200;2023-03-11T05:25:20;12.13;;;10.93;;
20336;SDS011;10326;53.660;10.200;2023-03-11T05:27:47;12.13;;;10.93;;
20336;SDS011;10326;53.660;10.200;2023-03-11T05:30:15;11.03;;;9.93;;
20336;SDS011;10326;53.660;10.200;2023-03-11T05:32:45;11.63;;;10.43;;
20336;SDS011;10326;53.660;10.200;2023-03-11T05:35:13;11.17;;;10.07;;
20336;SDS011;10326;53.660;10.200;2023-03-11T05:37:40;11.43;;;9.80;;
20336;SDS011;10326;53.660;10.200;2023-03-11T05:40:08;11.03;;;9.93;;
20336;SDS011;10326;53.660;10.200;2023-03-11T05:42:37;12.00;;;10.80;;
20336;SDS011;10326;53.660;10.200;2023-03-11T05:45:07;12.87;;;11.60;;
20336;SDS011;10326;53.660;10.200;2023-03-11T05:47:36;11.63;;;10.53;;
20336;SDS011;10326;53.660;10.200;2023-03-11T05:50:09;11.40;;;10.20;;
20336;SDS011;10326;53.660;10.200;2023-03-11T05:52:39;11.23;;;10.23;;
20336;SDS011;10326;53.660;10.200;2023-03-11T05:55:06;11.67;;;10.57;;
20336;SDS011;10326;53.660;10.200;2023-03-11T05:57:37;11.70;;;10.50;;
20336;SDS011;10326;53.660;10.200;2023-03-11T06:00:05;12.93;;;11.13;;
20336;SDS011;10326;53.660;10.200;2023-03-11T06:02:38;12.20;;;10.90;;
20336;SDS011;10326;53.660;10.200;2023-03-11T06:05:12;12.10;;;10.90;;
20336;SDS011;10326;53.660;10.200;2023-03-11T06:07:41;11.27;;;10.17;;
20336;SDS011;10326;53.660;10.200;2023-03-11T06:10:09;11.50;;;10.07;;
20336;SDS011;10326;53.660;10.200;2023-03-11T06:12:38;12.10;;;10.90;;
20336;SDS011;10326;53.660;10.200;2023-03-11T06:15:42;11.20;;;10.10;;
20336;SDS011;10326;53.660;10.200;2023-03-11T06:18:10;11.87;;;10.37;;
20336;SDS011;10326;53.660;10.200;2023-03-11T06:20:38;11.17;;;10.07;;
20336;SDS011;10326;53.660;10.200;2023-03-11T06:23:06;12.10;;;10.83;;
20336;SDS011;10326;53.660;10.200;2023-03-11T06:25:33;11.73;;;10.57;;
20336;SDS011;10326;53.660;10.200;2023-03-11T06:28:00;13.47;;;10.47;;
20336;SDS011;10326;53.660;10.200;2023-03-11T06:30:28;11.17;;;10.07;;
20336;SDS011;10326;53.660;10.200;2023-03-11T06:33:11;11.57;;;10.07;;
20336;SDS011;10326;53.660;10.200;2023-03-11T06:35:40;11.17;;;10.07;;
20336;SDS011;10326;53.660;10.200;2023-03-11T06:38:07;12.00;;;10.80;;
20336;SDS011;10326;53.660;10.200;2023-03-11T06:40:35;12.63;;;11.43;;
20336;SDS011;10326;53.660;10.200;2023-03-11T06:43:03;11.27;;;10.07;;
20336;SDS011;10326;53.660;10.200;2023-03-11T06:45:33;13.50;;;11.20;;
20336;SDS011;10326;53.660;10.200;2023-03-11T06:48:00;11.13;;;9.80;;
20336;SDS011;10326;53.660;10.200;2023-03-11T06:50:28;10.70;;;9.57;;
20336;SDS011;10326;53.660;10.200;2023-03-11T06:53:00;11.20;;;10.10;;
20336;SDS011;10326;53.660;10.200;2023-03-11T06:55:31;10.27;;;9.17;;
20336;SDS011;10326;53.660;10.200;2023-03-11T06:57:59;10.83;;;9.73;;
20336;SDS011;10326;53.660;10.200;2023-03-11T07:00:26;10.87;;;9.77;;
20336;SDS011;10326;53.660;10.200;2023-03-11T07:02:56;10.53;;;9.43;;
20336;SDS011;10326;53.660;10.200;2023-03-11T07:05:24;10.73;;;9.63;;
20336;SDS011;10326;53.660;10.200;2023-03-11T07:07:57;11.63;;;9.30;;
20336;SDS011;10326;53.660;10.200;2023-03-11T07:10:26;12.63;;;11.03;;
20336;SDS011;10326;53.660;10.200;2023-03-11T07:12:53;10.87;;;9.83;;
20336;SDS011;10326;53.660;10.200;2023-03-11T07:15:22;10.97;;;9.60;;
20336;SDS011;10326;53.660;10.200;2023-03-11T07:17:49;9.93;;;8.93;;
20336;SDS011;10326;53.660;10.200;2023-03-11T07:20:17;10.57;;;9.53;;
20336;SDS011;10326;53.660;10.200;2023-03-11T07:22:44;11.03;;;9.93;;
20336;SDS011;10326;53.660;10.200;2023-03-11T07:25:11;10.97;;;9.70;;
20336;SDS011;10326;53.660;10.200;2023-03-11T07:27:39;11.07;;;9.97;;
20336;SDS011;10326;53.660;10.200;2023-03-11T07:30:07;10.57;;;9.57;;
20336;SDS011;10326;53.660;10.200;2023-03-11T07:32:36;10.33;;;9.17;;
20336;SDS011;10326;53.660;10.200;2023-03-11T07:35:03;11.27;;;10.17;;
20336;SDS011;10326;53.660;10.200;2023-03-11T07:37:32;11.00;;;9.80;;
20336;SDS011;10326;53.660;10.200;2023-03-11T07:39:59;10.40;;;9.33;;
20336;SDS011;10326;53.660;10.200;2023-03-11T07:42:26;10.23;;;9.23;;
20336;SDS011;10326;53.660;10.200;2023-03-11T07:44:54;9.93;;;8.80;;
20336;SDS011;10326;53.660;10.200;2023-03-11T07:47:21;10.10;;;9.07;;
20336;SDS011;10326;53.660;10.200;2023-03-11T07:49:48;8.90;;;7.90;;
20336;SDS011;10326;53.660;10.200;2023-03-11T07:52:15;9.50;;;8.60;;
20336;SDS011;10326;53.660;10.200;2023-03-11T07:54:43;10.10;;;8.90;;
20336;SDS011;10326;53.660;10.200;2023-03-11T07:57:11;9.57;;;8.53;;
20336;SDS011;10326;53.660;10.200;2023-03-11T07:59:41;9.90;;;8.60;;
20336;SDS011;10326;53.660;10.200;2023-03-11T08:02:10;9.63;;;8.20;;
20336;SDS011;10326;53.660;10.200;2023-03-11T08:04:37;8.23;;;7.40;;
20336;SDS011;10326;53.660;10.200;2023-03-11T08:07:04;8.40;;;7.60;;
20336;SDS011;10326;53.660;10.200;2023-03-11T08:09:31;8.10;;;7.30;;
20336;SDS011;10326;53.660;10.200;2023-03-11T08:12:01;7.80;;;7.10;;
20336;SDS011;10326;53.660;10.200;2023-03-11T08:14:28;8.43;;;7.50;;
20336;SDS011;10326;53.660;10.200;2023-03-11T08:16:55;8.30;;;7.50;;
20336;SDS011;10326;53.660;10.200;2023-03-11T08:19:23;8.67;;;7.47;;
20336;SDS011;10326;53.660;10.200;2023-03-11T08:21:50;8.37;;;7.20;;
20336;SDS011;10326;53.660;10.200;2023-03-11T08:24:17;8.37;;;7.50;;
20336;SDS011;10326;53.660;10.200;2023-03-11T08:26:44;8.50;;;7.60;;
20336;SDS011;10326;53.660;10.200;2023-03-11T08:29:11;9.47;;;7.47;;
20336;SDS011;10326;53.660;10.200;2023-03-11T08:31:38;8.43;;;7.63;;
20336;SDS011;10326;53.660;10.200;2023-03-11T08:34:06;8.57;;;7.77;;
20336;SDS011;10326;53.660;10.200;2023-03-11T08:36:36;8.10;;;7.33;;
20336;SDS011;10326;53.660;10.200;2023-03-11T08:39:03;9.93;;;7.70;;
20336;SDS011;10326;53.660;10.200;2023-03-11T08:41:30;8.10;;;7.27;;
20336;SDS011;10326;53.660;10.200;2023-03-11T08:43:58;7.87;;;7.07;;
20336;SDS011;10326;53.660;10.200;2023-03-11T08:46:26;8.07;;;7.27;;
20336;SDS011;10326;53.660;10.200;2023-03-11T08:48:55;8.30;;;6.83;;
20336;SDS011;10326;53.660;10.200;2023-03-11T08:51:24;7.73;;;6.90;;
20336;SDS011;10326;53.660;10.200;2023-03-11T08:53:53;7.73;;;6.93;;
20336;SDS011;10326;53.660;10.200;2023-03-11T08:56:20;7.27;;;6.50;;
20336;SDS011;10326;53.660;10.200;2023-03-11T08:58:47;7.67;;;6.87;;
20336;SDS011;10326;53.660;10.200;2023-03-11T09:01:15;7.13;;;6.47;;
20336;SDS011;10326;53.660;10.200;2023-03-11T09:03:42;7.33;;;6.13;;
20336;SDS011;10326;53.660;10.200;2023-03-11T09:06:10;5.90;;;5.30;;
20336;SDS011;10326;53.660;10.200;2023-03-11T09:08:39;6.47;;;5.80;;
20336;SDS011;10326;53.660;10.200;2023-03-11T09:11:08;7.57;;;5.90;;
20336;SDS011;10326;53.660;10.200;2023-03-11T09:13:37;7.23;;;6.53;;
20336;SDS011;10326;53.660;10.200;2023-03-11T09:16:05;7.03;;;5.83;;
20336;SDS011;10326;53.660;10.200;2023-03-11T09:18:33;7.33;;;6.17;;
20336;SDS011;10326;53.660;10.200;2023-03-11T09:21:00;7.00;;;5.80;;
20336;SDS011;10326;53.660;10.200;2023-03-11T09:23:27;6.43;;;5.00;;
20336;SDS011;10326;53.660;10.200;2023-03-11T09:25:54;5.80;;;5.03;;
20336;SDS011;10326;53.660;10.200;2023-03-11T09:28:23;6.40;;;4.73;;
20336;SDS011;10326;53.660;10.200;2023-03-11T09:30:50;6.13;;;5.53;;
20336;SDS011;10326;53.660;10.200;2023-03-11T09:33:17;5.93;;;5.33;;
20336;SDS011;10326;53.660;10.200;2023-03-11T09:35:44;6.77;;;4.90;;
20336;SDS011;10326;53.660;10.200;2023-03-11T09:38:11;5.37;;;4.87;;
20336;SDS011;10326;53.660;10.200;2023-03-11T09:40:45;6.90;;;5.30;;
20336;SDS011;10326;53.660;10.200;2023-03-11T09:43:26;5.00;;;4.50;;
20336;SDS011;10326;53.660;10.200;2023-03-11T09:46:06;4.97;;;4.20;;
20336;SDS011;10326;53.660;10.200;2023-03-11T09:49:02;5.23;;;4.33;;
20336;SDS011;10326;53.660;10.200;2023-03-11T09:51:40;5.60;;;4.27;;
20336;SDS011;10326;53.660;10.200;2023-03-11T09:54:12;5.33;;;4.40;;
20336;SDS011;10326;53.660;10.200;2023-03-11T09:56:39;6.83;;;4.27;;
20336;SDS011;10326;53.660;10.200;2023-03-11T09:59:14;5.63;;;4.47;;
20336;SDS011;10326;53.660;10.200;2023-03-11T10:01:45;5.17;;;4.00;;
20336;SDS011;10326;53.660;10.200;2023-03-11T10:04:17;4.33;;;3.93;;
20336;SDS011;10326;53.660;10.200;2023-03-11T10:06:50;5.23;;;4.13;;
20336;SDS011;10326;53.660;10.200;2023-03-11T10:09:24;5.33;;;3.70;;
20336;SDS011;10326;53.660;10.200;2023-03-11T10:12:01;4.97;;;3.90;;
20336;SDS011;10326;53.660;10.200;2023-03-11T10:14:50;7.13;;;3.67;;
20336;SDS011;10326;53.660;10.200;2023-03-11T10:20:25;4.33;;;3.33;;
20336;SDS011;10326;53.660;10.200;2023-03-11T10:23:00;4.10;;;3.00;;
20336;SDS011;10326;53.660;10.200;2023-03-11T10:25:42;4.87;;;3.40;;
20336;SDS011;10326;53.660;10.200;2023-03-11T10:28:21;5.17;;;3.70;;
20336;SDS011;10326;53.660;10.200;2023-03-11T10:30:55;4.43;;;3.73;;
20336;SDS011;10326;53.660;10.200;2023-03-11T10:33:27;4.43;;;3.50;;
20336;SDS011;10326;53.660;10.200;2023-03-11T10:36:02;5.00;;;3.10;;
20336;SDS011;10326;53.660;10.200;2023-03-11T10:38:33;5.27;;;3.77;;
20336;SDS011;10326;53.660;10.200;2023-03-11T10:41:05;4.47;;;3.20;;
20336;SDS011;10326;53.660;10.200;2023-03-11T10:43:40;5.07;;;3.33;;
20336;SDS011;10326;53.660;10.200;2023-03-11T10:46:14;4.27;;;3.23;;
20336;SDS011;10326;53.660;10.200;2023-03-11T10:48:46;6.13;;;3.50;;
20336;SDS011;10326;53.660;10.200;2023-03-11T10:51:13;5.83;;;3.10;;
20336;SDS011;10326;53.660;10.200;2023-03-11T10:53:47;5.47;;;3.10;;
20336;SDS011;10326;53.660;10.200;2023-03-11T10:56:24;5.70;;;3.63;;
20336;SDS011;10326;53.660;10.200;2023-03-11T10:58:54;4.93;;;3.60;;
20336;SDS011;10326;53.660;10.200;2023-03-11T11:01:23;6.13;;;3.33;;
20336;SDS011;10326;53.660;10.200;2023-03-11T11:03:53;5.63;;;3.20;;
20336;SDS011;10326;53.660;10.200;2023-03-11T11:06:24;4.57;;;3.43;;
20336;SDS011;10326;53.660;10.200;2023-03-11T11:09:12;4.30;;;3.30;;
20336;SDS011;10326;53.660;10.200;2023-03-11T11:11:41;5.43;;;3.20;;
20336;SDS011;10326;53.660;10.200;2023-03-11T11:14:39;4.73;;;3.20;;
20336;SDS011;10326;53.660;10.200;2023-03-11T11:17:17;4.60;;;3.50;;
20336;SDS011;10326;53.660;10.200;2023-03-11T11:19:48;4.45;;;3.20;;
20336;SDS011;10326;53.660;10.200;2023-03-11T11:22:18;4.97;;;3.10;;
20336;SDS011;10326;53.660;10.200;2023-03-11T11:24:48;4.40;;;2.73;;
20336;SDS011;10326;53.660;10.200;2023-03-11T11:27:18;3.93;;;2.50;;
20336;SDS011;10326;53.660;10.200;2023-03-11T11:29:46;6.87;;;3.13;;
20336;SDS011;10326;53.660;10.200;2023-03-11T11:32:32;6.03;;;2.75;;
20336;SDS011;10326;53.660;10.200;2023-03-11T11:35:00;5.47;;;2.63;;
20336;SDS011;10326;53.660;10.200;2023-03-11T11:37:31;4.43;;;2.90;;
20336;SDS011;10326;53.660;10.200;2023-03-11T11:40:02;5.23;;;3.00;;
20336;SDS011;10326;53.660;10.200;2023-03-11T11:42:44;2.60;;;2.30;;
20336;SDS011;10326;53.660;10.200;2023-03-11T11:45:18;5.07;;;2.97;;
20336;SDS011;10326;53.660;10.200;2023-03-11T11:47:56;6.13;;;2.90;;
20336;SDS011;10326;53.660;10.200;2023-03-11T11:50:30;4.17;;;2.77;;
20336;SDS011;10326;53.660;10.200;2023-03-11T11:53:02;3.70;;;2.70;;
20336;SDS011;10326;53.660;10.200;2023-03-11T11:55:43;4.00;;;2.70;;
20336;SDS011;10326;53.660;10.200;2023-03-11T11:58:14;6.50;;;2.80;;
20336;SDS011;10326;53.660;10.200;2023-03-11T12:00:44;6.25;;;2.90;;
20336;SDS011;10326;53.660;10.200;2023-03-11T12:03:31;5.10;;;2.47;;
20336;SDS011;10326;53.660;10.200;2023-03-11T12:06:39;5.40;;;3.08;;
20336;SDS011;10326;53.660;10.200;2023-03-11T12:09:17;5.03;;;2.30;;
20336;SDS011;10326;53.660;10.200;2023-03-11T12:11:54;3.92;;;2.22;;
20336;SDS011;10326;53.660;10.200;2023-03-11T12:14:29;3.63;;;2.17;;
20336;SDS011;10326;53.660;10.200;2023-03-11T12:17:06;6.50;;;2.00;;
20336;SDS011;10326;53.660;10.200;2023-03-11T12:19:40;3.92;;;1.73;;
20336;SDS011;10326;53.660;10.200;2023-03-11T12:25:27;3.75;;;1.95;;
20336;SDS011;10326;53.660;10.200;2023-03-11T12:28:04;3.60;;;1.88;;
20336;SDS011;10326;53.660;10.200;2023-03-11T12:30:44;3.22;;;1.70;;
20336;SDS011;10326;53.660;10.200;2023-03-11T12:33:15;5.63;;;1.70;;
20336;SDS011;10326;53.660;10.200;2023-03-11T12:35:49;4.60;;;1.50;;
20336;SDS011;10326;53.660;10.200;2023-03-11T12:38:20;3.78;;;1.50;;
20336;SDS011;10326;53.660;10.200;2023-03-11T12:41:01;3.38;;;1.42;;
20336;SDS011;10326;53.660;10.200;2023-03-11T12:49:53;3.85;;;1.25;;
20336;SDS011;10326;53.660;10.200;2023-03-11T12:52:26;2.58;;;1.08;;
20336;SDS011;10326;53.660;10.200;2023-03-11T12:58:06;2.33;;;1.10;;
20336;SDS011;10326;53.660;10.200;2023-03-11T13:04:24;3.33;;;1.23;;
20336;SDS011;10326;53.660;10.200;2023-03-11T13:07:24;3.50;;;1.33;;
20336;SDS011;10326;53.660;10.200;2023-03-11T13:15:55;4.50;;;1.20;;
20336;SDS011;10326;53.660;10.200;2023-03-11T13:18:23;4.13;;;1.10;;
20336;SDS011;10326;53.660;10.200;2023-03-11T13:20:53;5.50;;;1.10;;
20336;SDS011;10326;53.660;10.200;2023-03-11T13:23:27;2.47;;;1.10;;
20336;SDS011;10326;53.660;10.200;2023-03-11T13:26:03;3.78;;;1.13;;
20336;SDS011;10326;53.660;10.200;2023-03-11T13:29:10;1.90;;;0.90;;
20336;SDS011;10326;53.660;10.200;2023-03-11T13:32:11;2.00;;;1.17;;
20336;SDS011;10326;53.660;10.200;2023-03-11T13:34:54;2.10;;;0.98;;
20336;SDS011;10326;53.660;10.200;2023-03-11T13:37:35;3.38;;;1.30;;
20336;SDS011;10326;53.660;10.200;2023-03-11T13:40:21;3.72;;;1.00;;
20336;SDS011;10326;53.660;10.200;2023-03-11T13:42:59;3.47;;;1.30;;
20336;SDS011;10326;53.660;10.200;2023-03-11T13:45:29;2.95;;;0.93;;
20336;SDS011;10326;53.660;10.200;2023-03-11T13:48:00;1.75;;;1.02;;
20336;SDS011;10326;53.660;10.200;2023-03-11T13:50:34;2.15;;;0.90;;
20336;SDS011;10326;53.660;10.200;2023-03-11T13:53:06;2.83;;;1.10;;
20336;SDS011;10326;53.660;10.200;2023-03-11T13:55:42;5.93;;;2.60;;
20336;SDS011;10326;53.660;10.200;2023-03-11T13:58:15;2.63;;;1.65;;
20336;SDS011;10326;53.660;10.200;2023-03-11T14:00:47;2.55;;;0.93;;
20336;SDS011;10326;53.660;10.200;2023-03-11T14:03:15;2.53;;;1.08;;
20336;SDS011;10326;53.660;10.200;2023-03-11T14:05:47;1.10;;;0.77;;
20336;SDS011;10326;53.660;10.200;2023-03-11T14:08:18;2.67;;;0.90;;
20336;SDS011;10326;53.660;10.200;2023-03-11T14:10:52;1.70;;;0.75;;
20336;SDS011;10326;53.660;10.200;2023-03-11T14:13:22;2.17;;;0.98;;
20336;SDS011;10326;53.660;10.200;2023-03-11T14:15:52;1.88;;;0.88;;
20336;SDS011;10326;53.660;10.200;2023-03-11T14:18:30;3.03;;;1.33;;
20336;SDS011;10326;53.660;10.200;2023-03-11T14:21:00;3.08;;;1.05;;
20336;SDS011;10326;53.660;10.200;2023-03-11T14:23:29;3.03;;;1.17;;
20336;SDS011;10326;53.660;10.200;2023-03-11T14:26:04;7.20;;;1.38;;
20336;SDS011;10326;53.660;10.200;2023-03-11T14:28:35;1.83;;;1.23;;
20336;SDS011;10326;53.660;10.200;2023-03-11T14:31:06;1.20;;;0.90;;
20336;SDS011;10326;53.660;10.200;2023-03-11T14:33:33;2.70;;;0.90;;
20336;SDS011;10326;53.660;10.200;2023-03-11T14:36:01;2.05;;;0.93;;
20336;SDS011;10326;53.660;10.200;2023-03-11T14:38:31;3.03;;;1.25;;
20336;SDS011;10326;53.660;10.200;2023-03-11T14:40:59;2.45;;;1.10;;
20336;SDS011;10326;53.660;10.200;2023-03-11T14:43:31;1.55;;;0.82;;
20336;SDS011;10326;53.660;10.200;2023-03-11T14:46:03;4.15;;;1.20;;
20336;SDS011;10326;53.660;10.200;2023-03-11T14:48:32;3.05;;;1.00;;
20336;SDS011;10326;53.660;10.200;2023-03-11T14:51:06;2.63;;;0.95;;
20336;SDS011;10326;53.660;10.200;2023-03-11T14:53:40;3.05;;;1.00;;
20336;SDS011;10326;53.660;10.200;2023-03-11T14:56:12;1.58;;;1.00;;
20336;SDS011;10326;53.660;10.200;2023-03-11T14:58:43;4.20;;;1.42;;
20336;SDS011;10326;53.660;10.200;2023-03-11T15:01:14;1.88;;;1.00;;
20336;SDS011;10326;53.660;10.200;2023-03-11T15:03:44;2.15;;;1.00;;
20336;SDS011;10326;53.660;10.200;2023-03-11T15:06:16;2.08;;;0.98;;
20336;SDS011;10326;53.660;10.200;2023-03-11T15:08:46;1.00;;;0.85;;
20336;SDS011;10326;53.660;10.200;2023-03-11T15:11:19;2.55;;;1.05;;
20336;SDS011;10326;53.660;10.200;2023-03-11T15:13:48;3.38;;;1.10;;